TimePDT,TemperatureF,Dew PointF,Humidity,Sea Level PressureIn,VisibilityMPH,Wind Direction,Wind SpeedMPH,Gust SpeedMPH,PrecipitationIn,Events,Conditions,WindDirDegrees,DateUTC
12:15 AM,41.0,41.0,100,29.91,10.0,Calm,Calm,-,N/A,,Clear,0,2013-05-17 07:15:00
12:35 AM,41.0,41.0,100,29.91,10.0,WNW,3.5,-,N/A,,Clear,290,2013-05-17 07:35:00
12:55 AM,41.0,41.0,100,29.91,10.0,Calm,Calm,-,N/A,,Clear,0,2013-05-17 07:55:00
1:15 AM,41.0,41.0,100,29.91,10.0,Calm,Calm,-,N/A,,Clear,0,2013-05-17 08:15:00
1:35 AM,41.0,41.0,100,29.90,10.0,Calm,Calm,-,N/A,,Clear,0,2013-05-17 08:35:00
1:55 AM,41.0,41.0,100,29.90,10.0,Calm,Calm,-,N/A,,Clear,0,2013-05-17 08:55:00
2:15 AM,41.0,41.0,100,29.90,10.0,Calm,Calm,-,N/A,,Clear,0,2013-05-17 09:15:00
2:35 AM,39.2,39.2,100,29.90,10.0,Calm,Calm,-,N/A,,Clear,0,2013-05-17 09:35:00
2:55 AM,37.4,37.4,100,29.90,10.0,Calm,Calm,-,N/A,,Clear,0,2013-05-17 09:55:00
3:15 AM,39.2,39.2,100,29.90,10.0,Calm,Calm,-,N/A,,Clear,0,2013-05-17 10:15:00
3:35 AM,37.4,37.4,100,29.90,10.0,Calm,Calm,-,N/A,,Clear,0,2013-05-17 10:35:00
3:55 AM,37.4,37.4,100,29.90,2.5,Calm,Calm,-,N/A,,Clear,0,2013-05-17 10:55:00
4:15 AM,37.4,37.4,100,29.90,10.0,Calm,Calm,-,N/A,,Clear,0,2013-05-17 11:15:00
4:35 AM,37.4,37.4,100,29.90,10.0,Calm,Calm,-,N/A,,Clear,0,2013-05-17 11:35:00
5:15 AM,37.4,37.4,100,29.90,7.0,Calm,Calm,-,N/A,,Scattered Clouds,0,2013-05-17 12:15:00
5:35 AM,37.4,37.4,100,29.91,10.0,Calm,Calm,-,N/A,,Scattered Clouds,0,2013-05-17 12:35:00
5:55 AM,37.4,37.4,100,29.91,10.0,Calm,Calm,-,N/A,,Clear,0,2013-05-17 12:55:00
6:15 AM,41.0,41.0,100,29.91,10.0,Calm,Calm,-,N/A,,Clear,0,2013-05-17 13:15:00
6:35 AM,42.8,42.8,100,29.91,10.0,Calm,Calm,-,N/A,,Clear,0,2013-05-17 13:35:00
6:55 AM,44.6,44.6,100,29.92,10.0,Calm,Calm,-,N/A,,Clear,0,2013-05-17 13:55:00
7:15 AM,44.6,44.6,100,29.91,10.0,Calm,Calm,-,N/A,,Clear,0,2013-05-17 14:15:00
7:35 AM,46.4,46.4,100,29.91,10.0,Calm,Calm,-,N/A,,Clear,0,2013-05-17 14:35:00
7:55 AM,50.0,44.6,82,29.91,10.0,NNE,6.9,-,N/A,,Clear,20,2013-05-17 14:55:00
8:15 AM,51.8,44.6,76,29.91,10.0,NE,4.6,-,N/A,,Clear,40,2013-05-17 15:15:00
8:35 AM,53.6,44.6,72,29.91,10.0,NNE,5.8,-,N/A,,Clear,30,2013-05-17 15:35:00
8:55 AM,55.4,42.8,63,29.90,10.0,NE,9.2,-,N/A,,Clear,40,2013-05-17 15:55:00
9:15 AM,57.2,44.6,63,29.90,10.0,NE,9.2,16.1,N/A,,Clear,40,2013-05-17 16:15:00
9:35 AM,59.0,44.6,59,29.90,10.0,ENE,10.4,-,N/A,,Clear,60,2013-05-17 16:35:00
9:55 AM,59.0,44.6,59,29.90,10.0,ESE,6.9,-,N/A,,Clear,110,2013-05-17 16:55:00
10:15 AM,57.2,46.4,67,29.89,10.0,ESE,6.9,-,N/A,,Scattered Clouds,110,2013-05-17 17:15:00
10:35 AM,57.2,46.4,67,29.89,10.0,ESE,6.9,-,N/A,,Mostly Cloudy,120,2013-05-17 17:35:00
10:55 AM,59.0,46.4,63,29.88,10.0,ESE,5.8,-,N/A,,Mostly Cloudy,110,2013-05-17 17:55:00
11:15 AM,60.8,46.4,59,29.88,10.0,SE,6.9,-,N/A,,Scattered Clouds,140,2013-05-17 18:15:00
11:35 AM,60.8,46.4,59,29.88,10.0,ESE,4.6,-,N/A,,Clear,120,2013-05-17 18:35:00
12:15 PM,62.6,44.6,52,29.87,10.0,SE,4.6,-,N/A,,Clear,140,2013-05-17 19:15:00
12:35 PM,64.4,44.6,49,29.86,10.0,East,4.6,-,N/A,,Clear,90,2013-05-17 19:35:00
12:55 PM,64.4,39.2,40,29.86,10.0,ESE,4.6,-,N/A,,Clear,110,2013-05-17 19:55:00
1:15 PM,64.4,37.4,37,29.85,10.0,Calm,Calm,-,N/A,,Clear,0,2013-05-17 20:15:00
1:35 PM,66.2,37.4,35,29.84,10.0,Calm,Calm,-,N/A,,Clear,0,2013-05-17 20:35:00
1:55 PM,68.0,41.0,37,29.84,10.0,ESE,4.6,-,N/A,,Clear,120,2013-05-17 20:55:00
2:15 PM,68.0,41.0,37,29.84,10.0,East,5.8,-,N/A,,Clear,100,2013-05-17 21:15:00
2:35 PM,68.0,39.2,35,29.83,10.0,ESE,4.6,-,N/A,,Clear,120,2013-05-17 21:35:00
2:55 PM,68.0,37.4,33,29.83,10.0,ESE,5.8,-,N/A,,Clear,110,2013-05-17 21:55:00
3:15 PM,68.0,39.2,35,29.83,10.0,East,6.9,-,N/A,,Clear,100,2013-05-17 22:15:00
3:35 PM,68.0,41.0,37,29.82,10.0,ESE,6.9,-,N/A,,Clear,110,2013-05-17 22:35:00
3:55 PM,66.2,42.8,43,29.83,10.0,ESE,6.9,-,N/A,,Scattered Clouds,110,2013-05-17 22:55:00
4:15 PM,64.4,42.8,45,29.82,10.0,ESE,6.9,-,N/A,,Clear,110,2013-05-17 23:15:00
4:35 PM,66.2,44.6,46,29.82,10.0,East,6.9,-,N/A,,Mostly Cloudy,100,2013-05-17 23:35:00
4:55 PM,66.2,42.8,43,29.83,10.0,East,6.9,-,N/A,,Mostly Cloudy,100,2013-05-17 23:55:00
5:15 PM,64.4,42.8,45,29.83,10.0,East,6.9,-,N/A,,Mostly Cloudy,100,2013-05-18 00:15:00
5:35 PM,66.2,42.8,43,29.83,10.0,East,5.8,-,N/A,,Mostly Cloudy,90,2013-05-18 00:35:00
5:55 PM,68.0,41.0,37,29.83,10.0,SSW,8.1,-,N/A,,Mostly Cloudy,200,2013-05-18 00:55:00
6:15 PM,64.4,42.8,45,29.84,10.0,South,10.4,18.4,N/A,,Overcast,170,2013-05-18 01:15:00
6:35 PM,60.8,44.6,55,29.84,10.0,South,9.2,-,N/A,Rain,Light Rain,190,2013-05-18 01:35:00
6:55 PM,60.8,44.6,55,29.85,10.0,Calm,Calm,-,N/A,,Drizzle,0,2013-05-18 01:55:00
7:15 PM,60.8,44.6,55,29.86,10.0,East,4.6,-,N/A,,Overcast,90,2013-05-18 02:15:00
7:35 PM,60.8,44.6,55,29.86,10.0,Calm,Calm,-,N/A,,Mostly Cloudy,0,2013-05-18 02:35:00
7:55 PM,59.0,46.4,63,29.87,10.0,Calm,Calm,-,N/A,Rain,Light Rain,0,2013-05-18 02:55:00
8:15 PM,55.4,50.0,82,29.87,10.0,Calm,Calm,-,N/A,,Scattered Clouds,0,2013-05-18 03:15:00
8:35 PM,55.4,48.2,77,29.88,5.0,South,8.1,-,N/A,,Haze,170,2013-05-18 03:35:00
8:55 PM,55.4,48.2,77,29.90,10.0,SSW,8.1,-,N/A,,Overcast,200,2013-05-18 03:55:00
9:15 PM,53.6,50.0,88,29.92,10.0,SSW,6.9,17.3,N/A,,Light Drizzle,210,2013-05-18 04:15:00
9:35 PM,53.6,50.0,88,29.93,10.0,SW,6.9,-,N/A,,Overcast,220,2013-05-18 04:35:00
9:55 PM,53.6,48.2,82,29.94,10.0,WSW,5.8,-,N/A,,Overcast,240,2013-05-18 04:55:00
10:15 PM,53.6,46.4,77,29.94,10.0,SSW,4.6,-,N/A,,Overcast,200,2013-05-18 05:15:00
10:35 PM,53.6,46.4,77,29.94,10.0,Calm,Calm,-,N/A,,Overcast,0,2013-05-18 05:35:00
10:55 PM,53.6,48.2,82,29.94,10.0,East,3.5,-,N/A,,Overcast,80,2013-05-18 05:55:00
11:15 PM,53.6,50.0,88,29.94,10.0,Calm,Calm,-,N/A,,Overcast,0,2013-05-18 06:15:00
11:35 PM,53.6,50.0,88,29.94,10.0,Calm,Calm,-,N/A,,Overcast,0,2013-05-18 06:35:00
11:55 PM,51.8,48.2,88,29.94,10.0,Calm,Calm,-,N/A,,Overcast,0,2013-05-18 06:55:00